Time;durP1;ratioP1;P1;durP2;ratioP2;P2;SDS_P1;SDS_P2;PMS_P1;PMS_P2;Temp;Humidity;BMP_temperature;BMP_pressure;BME280_temperature;BME280_humidity;BME280_pressure;Samples;Min_cycle;Max_cycle;Signal;HPM_P1;HPM_P2
2023/09/22 00:00:16;;;;;;;1.10;0.70;;;;;23.80;98771.00;;;;2588976;22;20191;-58
2023/09/22 00:01:16;;;;;;;0.82;0.52;;;;;23.80;98788.00;;;;2563667;22;20196;-58
2023/09/22 00:02:17;;;;;;;0.90;0.60;;;;;23.80;98784.00;;;;2589374;22;20262;-58
2023/09/22 00:03:17;;;;;;;1.07;0.60;;;;;23.80;98782.00;;;;2587756;22;20203;-58
2023/09/22 00:04:17;;;;;;;1.40;0.70;;;;;23.80;98785.00;;;;2589835;22;20231;-57
2023/09/22 00:05:18;;;;;;;1.47;0.70;;;;;23.20;98780.00;;;;2589451;22;20192;-58
2023/09/22 00:06:19;;;;;;;0.83;0.60;;;;;23.80;98787.00;;;;2571235;22;20187;-58
2023/09/22 00:07:19;;;;;;;1.52;0.50;;;;;23.80;98785.00;;;;2584960;22;20524;-58
2023/09/22 00:08:19;;;;;;;1.17;0.70;;;;;23.80;98779.00;;;;2590268;22;20192;-58
2023/09/22 00:09:20;;;;;;;0.90;0.63;;;;;23.80;98796.00;;;;2589501;22;20266;-58
2023/09/22 00:10:20;;;;;;;1.00;0.50;;;;;23.80;98794.00;;;;2589934;22;20199;-57
2023/09/22 00:11:20;;;;;;;1.10;0.80;;;;;23.80;98800.00;;;;2576929;22;20226;-58
2023/09/22 00:12:21;;;;;;;1.20;0.80;;;;;23.80;98803.00;;;;2590731;22;20517;-57
2023/09/22 00:13:21;;;;;;;1.30;0.60;;;;;23.80;98801.00;;;;2587134;22;20212;-57
2023/09/22 00:14:22;;;;;;;1.23;0.60;;;;;23.80;98801.00;;;;2589627;22;20195;-58
2023/09/22 00:15:22;;;;;;;0.97;0.60;;;;;23.80;98799.00;;;;2590400;22;20199;-57
2023/09/22 00:16:23;;;;;;;1.03;0.50;;;;;23.80;98803.00;;;;2562561;22;20318;-57
2023/09/22 00:17:24;;;;;;;1.20;0.50;;;;;23.80;98805.00;;;;2576498;22;20203;-57
2023/09/22 00:18:24;;;;;;;1.10;0.60;;;;;23.80;98797.00;;;;2590208;22;20985;-61
2023/09/22 00:19:25;;;;;;;1.30;0.70;;;;;23.80;98795.00;;;;2585850;22;20192;-61
2023/09/22 00:20:25;;;;;;;0.87;0.60;;;;;23.80;98797.00;;;;2590504;22;20222;-58
2023/09/22 00:21:26;;;;;;;1.00;0.60;;;;;23.80;98806.00;;;;2571681;22;20195;-58
2023/09/22 00:22:26;;;;;;;2.10;0.83;;;;;23.80;98805.00;;;;2589884;22;20196;-58
2023/09/22 00:23:26;;;;;;;1.03;0.50;;;;;23.80;98803.00;;;;2588325;22;20214;-58
2023/09/22 00:24:27;;;;;;;1.00;0.53;;;;;23.80;98810.00;;;;2590460;22;20272;-58
2023/09/22 00:25:27;;;;;;;1.53;0.60;;;;;23.80;98805.00;;;;2590684;22;20222;-57
2023/09/22 00:26:27;;;;;;;1.20;0.90;;;;;23.80;98800.00;;;;2569099;22;20201;-58
2023/09/22 00:27:28;;;;;;;1.03;0.80;;;;;23.80;98811.00;;;;2589612;22;20195;-57
2023/09/22 00:28:28;;;;;;;0.90;0.60;;;;;23.80;98807.00;;;;2580733;22;20203;-58
2023/09/22 00:29:28;;;;;;;1.00;0.60;;;;;23.80;98814.00;;;;2586722;22;20215;-58
2023/09/22 00:30:29;;;;;;;0.93;0.60;;;;;23.80;98807.00;;;;2583811;22;20503;-57
2023/09/22 00:31:29;;;;;;;1.40;0.80;;;;;23.80;98812.00;;;;2576204;22;20612;-58
2023/09/22 00:32:29;;;;;;;1.07;0.70;;;;;23.80;98819.00;;;;2590463;22;20529;-57
2023/09/22 00:33:30;;;;;;;0.80;0.50;;;;;23.80;98792.00;;;;2587863;22;20199;-58
2023/09/22 00:34:33;;;;;;;1.10;0.60;;;;;23.80;98826.00;;;;2589992;22;20191;-57
2023/09/22 00:35:33;;;;;;;1.20;0.70;;;;;23.80;98817.00;;;;2576183;22;20215;-58
2023/09/22 00:36:34;;;;;;;1.10;0.63;;;;;23.80;98826.00;;;;2574311;22;20253;-58
2023/09/22 00:37:34;;;;;;;0.97;0.50;;;;;23.80;98828.00;;;;2590577;22;20254;-58
2023/09/22 00:38:34;;;;;;;1.43;0.70;;;;;23.80;98830.00;;;;2589898;22;20195;-58
2023/09/22 00:39:35;;;;;;;1.13;0.67;;;;;23.80;98831.00;;;;2589338;22;20195;-58
2023/09/22 00:40:35;;;;;;;1.00;0.50;;;;;23.80;98824.00;;;;2580415;22;20732;-59
2023/09/22 00:41:36;;;;;;;1.33;0.60;;;;;23.80;98833.00;;;;2575607;22;20604;-58
2023/09/22 00:42:36;;;;;;;1.90;0.87;;;;;23.80;98832.00;;;;2602216;22;20248;-58
2023/09/22 00:43:36;;;;;;;0.90;0.63;;;;;23.80;98833.00;;;;2602956;22;20195;-58
2023/09/22 00:44:37;;;;;;;1.43;0.60;;;;;23.80;98824.00;;;;2589199;22;20281;-58
2023/09/22 00:45:42;;;;;;;1.20;0.70;;;;;23.80;98832.00;;;;2585866;22;20270;-59
2023/09/22 00:46:43;;;;;;;1.52;0.50;;;;;23.80;98834.00;;;;2574018;22;20187;-58
2023/09/22 00:47:43;;;;;;;0.80;0.53;;;;;23.70;98832.00;;;;2589186;22;20200;-58
2023/09/22 00:48:43;;;;;;;1.20;0.77;;;;;23.80;98830.00;;;;2586405;22;20223;-58
2023/09/22 00:49:45;;;;;;;1.37;0.60;;;;;23.80;98820.00;;;;2584960;22;20200;-57
2023/09/22 00:50:45;;;;;;;0.90;0.50;;;;;23.80;98845.00;;;;2562718;23;20197;-58
2023/09/22 00:51:45;;;;;;;1.10;0.80;;;;;23.80;98817.00;;;;2558356;23;20799;-58
2023/09/22 00:52:46;;;;;;;0.90;0.53;;;;;23.80;98828.00;;;;2575798;22;21006;-58
2023/09/22 00:53:46;;;;;;;1.13;0.73;;;;;23.80;98840.00;;;;2550416;23;20276;-58
2023/09/22 00:54:46;;;;;;;1.00;0.67;;;;;23.80;98846.00;;;;2561140;23;21615;-57
2023/09/22 00:55:48;;;;;;;1.33;0.77;;;;;23.80;98833.00;;;;2577234;23;20196;-57
2023/09/22 00:56:48;;;;;;;0.80;0.40;;;;;23.80;98846.00;;;;2562418;22;20203;-58
2023/09/22 00:57:49;;;;;;;0.67;0.43;;;;;23.70;98832.00;;;;2576805;23;20721;-58
2023/09/22 00:58:49;;;;;;;1.17;0.73;;;;;23.80;98840.00;;;;2550778;23;20525;-57
2023/09/22 00:59:50;;;;;;;1.00;0.63;;;;;23.70;98849.00;;;;2576245;23;20258;-58
2023/09/22 01:00:52;;;;;;;0.90;0.53;;;;;23.80;98850.00;;;;2578119;23;20516;-58
2023/09/22 01:01:52;;;;;;;1.10;0.68;;;;;23.80;98849.00;;;;2563463;22;20939;-57
2023/09/22 01:02:54;;;;;;;1.20;0.70;;;;;23.80;98843.00;;;;2578461;22;20206;-58
2023/09/22 01:03:55;;;;;;;1.10;0.80;;;;;23.70;98847.00;;;;2577481;22;20192;-58
2023/09/22 01:04:55;;;;;;;1.20;0.60;;;;;23.80;98852.00;;;;2586867;22;20218;-57
2023/09/22 01:05:56;;;;;;;1.30;0.60;;;;;23.70;98848.00;;;;2588373;22;20428;-58
2023/09/22 01:06:56;;;;;;;0.90;0.60;;;;;23.80;98848.00;;;;2575315;22;20195;-58
2023/09/22 01:07:56;;;;;;;1.00;0.77;;;;;23.80;98849.00;;;;2579708;22;20191;-58
2023/09/22 01:08:57;;;;;;;1.00;0.60;;;;;23.70;98843.00;;;;2600570;22;20215;-58
2023/09/22 01:10:07;;;;;;;1.00;0.70;;;;;23.70;98843.00;;;;2591479;22;20194;-57
2023/09/22 01:11:08;;;;;;;1.30;0.50;;;;;23.70;98846.00;;;;2576349;22;20422;-58
2023/09/22 01:12:09;;;;;;;1.43;0.50;;;;;23.70;98839.00;;;;2587390;22;20207;-57
2023/09/22 01:13:10;;;;;;;1.55;0.57;;;;;23.70;98841.00;;;;2583414;22;20248;-57
2023/09/22 01:14:10;;;;;;;1.00;0.77;;;;;23.70;98836.00;;;;2585068;22;20237;-58
2023/09/22 01:15:10;;;;;;;1.00;0.50;;;;;23.70;98839.00;;;;2590514;22;20524;-58
2023/09/22 01:16:11;;;;;;;2.70;0.77;;;;;23.70;98844.00;;;;2575466;22;20267;-58
2023/09/22 01:17:13;;;;;;;0.70;0.40;;;;;23.70;98845.00;;;;2598902;22;20238;-58
2023/09/22 01:18:14;;;;;;;1.05;0.70;;;;;23.80;98845.00;;;;2587247;22;20661;-58
2023/09/22 01:19:16;;;;;;;0.90;0.53;;;;;23.70;98862.00;;;;2583939;22;20200;-57
2023/09/22 01:20:17;;;;;;;1.33;0.60;;;;;23.70;98853.00;;;;2586993;22;20828;-58
2023/09/22 01:21:17;;;;;;;0.80;0.50;;;;;23.70;98852.00;;;;2576302;22;20191;-58
2023/09/22 01:22:19;;;;;;;1.47;0.60;;;;;23.70;98867.00;;;;2589365;22;20915;-58
2023/09/22 01:23:19;;;;;;;1.30;0.70;;;;;23.80;98863.00;;;;2588531;22;20876;-58
2023/09/22 01:24:19;;;;;;;1.67;0.80;;;;;23.80;98871.00;;;;2589079;22;20230;-58
2023/09/22 01:25:20;;;;;;;1.90;0.70;;;;;23.70;98865.00;;;;2590497;22;20199;-58
2023/09/22 01:26:21;;;;;;;1.30;0.50;;;;;23.70;98869.00;;;;2576057;22;20203;-58
2023/09/22 01:27:21;;;;;;;1.13;0.60;;;;;23.70;98872.00;;;;2586436;22;20210;-58
2023/09/22 01:28:22;;;;;;;1.30;0.80;;;;;23.70;98865.00;;;;2589095;22;20274;-58
2023/09/22 01:29:22;;;;;;;1.43;0.70;;;;;23.70;98865.00;;;;2589527;22;20203;-59
2023/09/22 01:30:22;;;;;;;1.23;0.57;;;;;23.70;98867.00;;;;2588687;22;20794;-57
2023/09/22 01:31:23;;;;;;;1.03;0.60;;;;;23.70;98863.00;;;;2576644;22;20222;-58
2023/09/22 01:32:23;;;;;;;0.70;0.50;;;;;23.70;98863.00;;;;2589555;22;20207;-58
2023/09/22 01:33:23;;;;;;;0.90;0.57;;;;;23.70;98862.00;;;;2590827;22;20207;-58
2023/09/22 01:34:24;;;;;;;1.00;0.70;;;;;23.70;98868.00;;;;2590557;22;20267;-57
2023/09/22 01:35:24;;;;;;;1.53;0.70;;;;;23.70;98867.00;;;;2590688;22;20195;-58
2023/09/22 01:36:25;;;;;;;0.80;0.50;;;;;23.70;98863.00;;;;2576901;22;20199;-58
2023/09/22 01:37:28;;;;;;;1.00;0.60;;;;;23.70;98874.00;;;;2590396;22;20192;-58
2023/09/22 01:38:29;;;;;;;1.10;0.70;;;;;23.70;98876.00;;;;2589100;22;20246;-58
2023/09/22 01:39:29;;;;;;;0.87;0.50;;;;;23.70;98890.00;;;;2575002;22;20199;-57
2023/09/22 01:40:29;;;;;;;0.80;0.47;;;;;23.70;98884.00;;;;2588369;22;20187;-58
2023/09/22 01:41:30;;;;;;;1.00;0.70;;;;;23.70;98872.00;;;;2576205;22;20183;-57
2023/09/22 01:42:30;;;;;;;1.20;0.60;;;;;23.70;98866.00;;;;2588901;22;20195;-58
2023/09/22 01:43:31;;;;;;;1.17;0.73;;;;;23.70;98873.00;;;;2590046;22;20846;-58
2023/09/22 01:44:31;;;;;;;1.03;0.60;;;;;23.70;98872.00;;;;2589083;22;20195;-57
2023/09/22 01:45:31;;;;;;;0.90;0.57;;;;;23.70;98879.00;;;;2602885;22;20247;-57
2023/09/22 01:46:32;;;;;;;0.90;0.50;;;;;23.70;98869.00;;;;2576468;22;20199;-57
2023/09/22 01:47:33;;;;;;;0.80;0.50;;;;;23.70;98876.00;;;;2590887;22;20192;-58
2023/09/22 01:48:34;;;;;;;0.93;0.57;;;;;23.70;98876.00;;;;2589769;22;20195;-57
2023/09/22 01:49:34;;;;;;;1.00;0.60;;;;;23.70;98872.00;;;;2589722;22;20272;-58
2023/09/22 01:50:37;;;;;;;1.10;0.80;;;;;23.70;98879.00;;;;2589781;22;20211;-58
2023/09/22 01:51:38;;;;;;;0.82;0.60;;;;;23.70;98876.00;;;;2560056;22;20199;-58
2023/09/22 01:52:39;;;;;;;1.10;0.70;;;;;23.70;98880.00;;;;2574817;22;20203;-58
2023/09/22 01:53:39;;;;;;;1.00;0.53;;;;;23.70;98883.00;;;;2589763;22;20660;-58
2023/09/22 01:54:39;;;;;;;0.83;0.57;;;;;23.70;98883.00;;;;2587208;22;20545;-58
2023/09/22 01:55:40;;;;;;;1.00;0.60;;;;;23.70;98875.00;;;;2587305;22;20192;-58
2023/09/22 01:56:41;;;;;;;1.45;0.70;;;;;23.70;98882.00;;;;2575598;22;20531;-58
2023/09/22 01:57:41;;;;;;;1.87;0.60;;;;;23.70;98888.00;;;;2589667;22;20190;-57
2023/09/22 01:58:41;;;;;;;1.07;0.60;;;;;23.70;98894.00;;;;2601034;22;20238;-57
2023/09/22 01:59:42;;;;;;;1.00;0.60;;;;;23.70;98897.00;;;;2587709;22;20742;-58
2023/09/22 02:00:42;;;;;;;0.77;0.50;;;;;23.70;98900.00;;;;2588913;22;20524;-57
2023/09/22 02:01:43;;;;;;;1.37;0.70;;;;;23.70;98890.00;;;;2576578;22;20852;-58
2023/09/22 02:02:43;;;;;;;1.10;0.60;;;;;23.70;98893.00;;;;2590609;22;20592;-58
2023/09/22 02:03:43;;;;;;;0.90;0.40;;;;;23.70;98892.00;;;;2590463;22;20194;-57
2023/09/22 02:04:44;;;;;;;0.80;0.50;;;;;23.70;98893.00;;;;2590278;22;20215;-58
2023/09/22 02:05:44;;;;;;;0.90;0.50;;;;;23.70;98888.00;;;;2584319;22;20688;-58
2023/09/22 02:06:44;;;;;;;1.40;0.70;;;;;23.70;98882.00;;;;2569706;22;20642;-58
2023/09/22 02:07:45;;;;;;;1.00;0.53;;;;;23.70;98891.00;;;;2585364;22;20210;-58
2023/09/22 02:08:45;;;;;;;1.00;0.50;;;;;23.70;98887.00;;;;2589834;22;20275;-58
2023/09/22 02:09:46;;;;;;;0.80;0.60;;;;;23.70;98897.00;;;;2589565;22;20198;-58
2023/09/22 02:10:47;;;;;;;1.00;0.60;;;;;23.70;98892.00;;;;2590092;22;20192;-58
2023/09/22 02:11:47;;;;;;;0.95;0.55;;;;;23.70;98896.00;;;;2575497;22;20192;-58
2023/09/22 02:12:48;;;;;;;0.80;0.50;;;;;23.70;98899.00;;;;2589942;22;20709;-59
2023/09/22 02:13:48;;;;;;;0.87;0.50;;;;;23.70;98919.00;;;;2576372;22;20250;-58
2023/09/22 02:14:48;;;;;;;1.07;0.60;;;;;23.70;98907.00;;;;2564470;23;20718;-58
2023/09/22 02:15:49;;;;;;;1.13;0.60;;;;;23.70;98909.00;;;;2575474;23;20638;-58
2023/09/22 02:16:49;;;;;;;0.77;0.50;;;;;23.70;98905.00;;;;2574694;22;20215;-57
2023/09/22 02:17:50;;;;;;;1.23;0.70;;;;;23.70;98909.00;;;;2589970;22;20190;-58
2023/09/22 02:18:50;;;;;;;0.80;0.50;;;;;23.70;98916.00;;;;2588689;22;20262;-58
2023/09/22 02:19:51;;;;;;;1.07;0.50;;;;;23.70;98909.00;;;;2590003;22;20187;-58
2023/09/22 02:20:52;;;;;;;0.90;0.50;;;;;23.70;98904.00;;;;2590245;22;20268;-58
2023/09/22 02:21:52;;;;;;;1.00;0.73;;;;;23.70;98912.00;;;;2575395;22;20187;-58
2023/09/22 02:22:56;;;;;;;1.30;0.60;;;;;23.70;98908.00;;;;2589625;22;20505;-58
2023/09/22 02:23:56;;;;;;;1.15;0.60;;;;;23.70;98915.00;;;;2589012;22;20196;-58
2023/09/22 02:24:57;;;;;;;1.00;0.70;;;;;23.70;98924.00;;;;2589390;22;20196;-58
2023/09/22 02:26:04;;;;;;;1.43;0.50;;;;;23.70;98911.00;;;;2577849;22;20200;-59
2023/09/22 02:27:05;;;;;;;1.10;0.70;;;;;23.70;98915.00;;;;2565786;22;21037;-58
2023/09/22 02:28:05;;;;;;;1.00;0.70;;;;;23.70;98915.00;;;;2586476;22;20191;-58
2023/09/22 02:29:05;;;;;;;1.57;0.50;;;;;23.70;98911.00;;;;2589445;22;20214;-58
2023/09/22 02:30:08;;;;;;;0.90;0.50;;;;;23.70;98914.00;;;;2589809;22;20221;-58
2023/09/22 02:31:08;;;;;;;1.15;0.55;;;;;23.70;98906.00;;;;2562408;22;20196;-58
2023/09/22 02:32:09;;;;;;;0.90;0.50;;;;;23.70;98908.00;;;;2589995;22;20202;-58
2023/09/22 02:33:09;;;;;;;0.87;0.40;;;;;23.70;98912.00;;;;2591220;22;20219;-58
2023/09/22 02:34:09;;;;;;;1.00;0.60;;;;;23.70;98905.00;;;;2590934;22;20234;-58
2023/09/22 02:35:11;;;;;;;0.93;0.63;;;;;23.70;98909.00;;;;2590552;22;20237;-57
2023/09/22 02:36:11;;;;;;;1.00;0.50;;;;;23.70;98904.00;;;;2575887;22;20278;-58
2023/09/22 02:37:11;;;;;;;0.80;0.50;;;;;23.70;98910.00;;;;2588914;22;20236;-58
2023/09/22 02:38:12;;;;;;;1.03;0.57;;;;;23.70;98907.00;;;;2590128;22;20196;-58
2023/09/22 02:39:12;;;;;;;1.10;0.50;;;;;23.70;98901.00;;;;2586991;22;20280;-58
2023/09/22 02:40:14;;;;;;;0.80;0.50;;;;;23.70;98904.00;;;;2590713;22;20195;-57
2023/09/22 02:41:14;;;;;;;0.93;0.60;;;;;23.70;98907.00;;;;2572343;22;20728;-58
2023/09/22 02:42:14;;;;;;;1.00;0.63;;;;;23.70;98907.00;;;;2589588;22;20191;-58
2023/09/22 02:43:15;;;;;;;0.80;0.47;;;;;23.70;98912.00;;;;2590158;22;20187;-58
2023/09/22 02:44:15;;;;;;;1.00;0.60;;;;;23.70;98909.00;;;;2590781;22;20199;-58
2023/09/22 02:45:16;;;;;;;1.37;0.60;;;;;23.70;98901.00;;;;2588436;22;20199;-59
2023/09/22 02:46:16;;;;;;;1.00;0.60;;;;;23.20;98908.00;;;;2575255;22;20199;-58
2023/09/22 02:47:17;;;;;;;1.33;0.70;;;;;23.70;98906.00;;;;2590357;22;20206;-57
2023/09/22 02:48:17;;;;;;;0.90;0.50;;;;;23.70;98908.00;;;;2590051;22;20637;-58
2023/09/22 02:49:17;;;;;;;1.10;0.50;;;;;23.70;98905.00;;;;2578626;22;20687;-58
2023/09/22 02:50:18;;;;;;;1.67;0.60;;;;;23.70;98906.00;;;;2590595;22;20215;-58
2023/09/22 02:51:18;;;;;;;1.00;0.60;;;;;23.70;98905.00;;;;2576153;22;20191;-58
2023/09/22 02:52:19;;;;;;;1.00;0.57;;;;;23.70;98908.00;;;;2589897;22;20431;-58
2023/09/22 02:53:20;;;;;;;0.90;0.50;;;;;23.70;98901.00;;;;2589820;22;20199;-57
2023/09/22 02:54:20;;;;;;;0.90;0.60;;;;;23.70;98911.00;;;;2589730;22;20422;-58
2023/09/22 02:55:20;;;;;;;1.53;0.70;;;;;23.70;98903.00;;;;2590428;22;20188;-58
2023/09/22 02:56:21;;;;;;;1.30;0.60;;;;;23.70;98901.00;;;;2576411;22;20199;-58
2023/09/22 02:57:21;;;;;;;0.80;0.40;;;;;23.70;98905.00;;;;2589634;22;20253;-57
2023/09/22 02:58:23;;;;;;;1.13;0.60;;;;;23.70;98906.00;;;;2583801;22;21000;-58
2023/09/22 02:59:23;;;;;;;1.83;0.63;;;;;23.70;98905.00;;;;2597806;22;20947;-58
2023/09/22 03:00:23;;;;;;;1.37;0.63;;;;;23.70;98905.00;;;;2586322;22;20195;-58
2023/09/22 03:01:24;;;;;;;1.07;0.50;;;;;23.70;98906.00;;;;2570256;22;20234;-58
2023/09/22 03:02:24;;;;;;;0.90;0.50;;;;;23.70;98906.00;;;;2591023;22;20561;-58
2023/09/22 03:03:25;;;;;;;0.90;0.50;;;;;23.70;98908.00;;;;2590593;22;20521;-58
2023/09/22 03:04:25;;;;;;;1.23;0.50;;;;;23.70;98910.00;;;;2590205;22;20269;-58
2023/09/22 03:05:26;;;;;;;0.90;0.50;;;;;23.70;98907.00;;;;2589802;22;20199;-57
2023/09/22 03:06:26;;;;;;;1.40;0.60;;;;;23.70;98906.00;;;;2588359;22;20198;-58
2023/09/22 03:07:27;;;;;;;0.80;0.50;;;;;23.70;98906.00;;;;2602677;22;20445;-58
2023/09/22 03:08:27;;;;;;;0.90;0.50;;;;;23.70;98902.00;;;;2588920;22;20218;-59
2023/09/22 03:09:28;;;;;;;0.93;0.60;;;;;23.70;98906.00;;;;2588053;22;20196;-58
2023/09/22 03:10:29;;;;;;;1.00;0.50;;;;;23.70;98906.00;;;;2589161;22;20275;-57
2023/09/22 03:11:29;;;;;;;0.90;0.50;;;;;23.70;98905.00;;;;2576600;22;20226;-58
2023/09/22 03:12:30;;;;;;;2.20;0.50;;;;;23.70;98949.00;;;;2590435;22;20550;-58
2023/09/22 03:13:30;;;;;;;1.00;0.63;;;;;23.70;98912.00;;;;2577375;22;20529;-57
2023/09/22 03:14:30;;;;;;;1.00;0.50;;;;;23.70;98916.00;;;;2574985;22;20196;-58
2023/09/22 03:15:31;;;;;;;1.30;0.73;;;;;23.70;98914.00;;;;2573649;23;20196;-58
2023/09/22 03:16:31;;;;;;;1.23;0.60;;;;;23.70;98909.00;;;;2563258;23;20289;-58
2023/09/22 03:17:32;;;;;;;1.00;0.60;;;;;23.70;98915.00;;;;2590454;22;20239;-58
2023/09/22 03:18:32;;;;;;;1.20;0.60;;;;;23.70;98915.00;;;;2590868;22;20195;-58
2023/09/22 03:19:32;;;;;;;0.90;0.60;;;;;23.70;98912.00;;;;2589090;22;20219;-57
2023/09/22 03:20:33;;;;;;;0.80;0.50;;;;;23.70;98917.00;;;;2590240;22;20203;-58
2023/09/22 03:21:33;;;;;;;0.80;0.40;;;;;23.70;98913.00;;;;2575849;22;20533;-57
2023/09/22 03:22:34;;;;;;;0.90;0.40;;;;;23.70;98911.00;;;;2589616;22;20419;-58
2023/09/22 03:23:35;;;;;;;1.42;0.70;;;;;23.70;98908.00;;;;2589755;22;20583;-58
2023/09/22 03:24:35;;;;;;;0.93;0.67;;;;;23.70;98912.00;;;;2590218;22;20200;-58
2023/09/22 03:25:36;;;;;;;0.77;0.50;;;;;23.70;98898.00;;;;2590602;22;20190;-58
2023/09/22 03:26:36;;;;;;;0.90;0.50;;;;;23.70;98893.00;;;;2576046;22;20191;-58
2023/09/22 03:27:37;;;;;;;1.00;0.53;;;;;23.70;98896.00;;;;2589222;22;20265;-58
2023/09/22 03:28:37;;;;;;;0.90;0.50;;;;;23.70;98906.00;;;;2590253;22;20188;-58
2023/09/22 03:29:37;;;;;;;0.83;0.47;;;;;23.70;98895.00;;;;2588585;22;20231;-58
2023/09/22 03:30:38;;;;;;;0.80;0.50;;;;;23.70;98888.00;;;;2590754;22;20198;-58
2023/09/22 03:31:38;;;;;;;1.27;0.60;;;;;23.70;98892.00;;;;2576037;22;20870;-58
2023/09/22 03:32:39;;;;;;;1.17;0.60;;;;;23.70;98890.00;;;;2587157;22;20736;-57
2023/09/22 03:33:40;;;;;;;0.80;0.50;;;;;23.70;98892.00;;;;2590109;22;20509;-58
2023/09/22 03:34:40;;;;;;;1.10;0.60;;;;;23.70;98887.00;;;;2589967;22;21243;-57
2023/09/22 03:35:41;;;;;;;1.20;0.63;;;;;23.70;98892.00;;;;2587718;22;20192;-57
2023/09/22 03:36:41;;;;;;;1.30;0.60;;;;;23.70;98885.00;;;;2574343;22;20195;-58
2023/09/22 03:37:42;;;;;;;0.80;0.50;;;;;23.70;98891.00;;;;2599633;22;20197;-57
2023/09/22 03:38:52;;;;;;;1.27;0.80;;;;;23.70;98901.00;;;;2586464;22;20192;-58
2023/09/22 03:39:56;;;;;;;1.05;0.50;;;;;23.70;98894.00;;;;2588419;22;20191;-58
2023/09/22 03:41:00;;;;;;;0.93;0.60;;;;;23.70;98894.00;;;;2578880;22;20195;-58
2023/09/22 03:42:01;;;;;;;0.82;0.55;;;;;23.70;98898.00;;;;2573383;22;20192;-58
2023/09/22 03:43:03;;;;;;;1.10;0.60;;;;;23.70;98894.00;;;;2599003;22;20205;-58
2023/09/22 03:44:04;;;;;;;1.00;0.50;;;;;23.70;98906.00;;;;2589964;22;20191;-58
2023/09/22 03:45:06;;;;;;;1.00;0.50;;;;;23.70;98898.00;;;;2589919;22;20251;-58
2023/09/22 03:46:08;;;;;;;1.08;0.50;;;;;23.70;98900.00;;;;2571373;22;20705;-58
2023/09/22 03:47:08;;;;;;;0.82;0.50;;;;;23.70;98900.00;;;;2591096;22;20645;-58
2023/09/22 03:48:08;;;;;;;1.30;0.60;;;;;23.70;98900.00;;;;2590175;22;20195;-58
2023/09/22 03:49:09;;;;;;;0.70;0.40;;;;;23.70;98903.00;;;;2589295;22;20195;-58
2023/09/22 03:50:09;;;;;;;0.80;0.50;;;;;23.60;98889.00;;;;2590233;22;20202;-58
2023/09/22 03:51:10;;;;;;;1.83;0.80;;;;;23.70;98897.00;;;;2573884;22;20223;-58
2023/09/22 03:52:10;;;;;;;0.80;0.50;;;;;23.60;98895.00;;;;2589454;22;20202;-58
2023/09/22 03:53:10;;;;;;;1.20;0.60;;;;;23.70;98895.00;;;;2590117;22;20195;-58
2023/09/22 03:54:11;;;;;;;1.23;0.60;;;;;23.70;98893.00;;;;2590751;22;20253;-58
2023/09/22 03:55:11;;;;;;;0.90;0.67;;;;;23.60;98884.00;;;;2588376;22;20219;-57
2023/09/22 03:56:12;;;;;;;1.93;0.70;;;;;23.60;98891.00;;;;2575338;22;20240;-59
2023/09/22 03:57:12;;;;;;;1.10;0.60;;;;;23.60;98895.00;;;;2583689;22;20296;-58
2023/09/22 03:58:13;;;;;;;1.23;0.60;;;;;23.60;98897.00;;;;2586775;22;20199;-57
2023/09/22 03:59:14;;;;;;;0.85;0.55;;;;;23.70;98896.00;;;;2589021;22;20191;-58
2023/09/22 04:00:18;;;;;;;1.00;0.50;;;;;23.70;98899.00;;;;2590355;22;20195;-58
2023/09/22 04:01:18;;;;;;;0.70;0.40;;;;;23.70;98895.00;;;;2573255;22;20191;-58
2023/09/22 04:02:20;;;;;;;1.20;0.50;;;;;23.60;98896.00;;;;2585918;22;20690;-57
2023/09/22 04:03:20;;;;;;;0.70;0.40;;;;;23.70;98890.00;;;;2589705;22;20685;-58
2023/09/22 04:04:21;;;;;;;1.20;0.60;;;;;23.60;98888.00;;;;2588767;22;20210;-57
2023/09/22 04:05:22;;;;;;;1.00;0.47;;;;;23.60;98898.00;;;;2588591;22;20199;-58
2023/09/22 04:06:22;;;;;;;0.80;0.50;;;;;23.60;98894.00;;;;2571980;22;21156;-58
2023/09/22 04:07:22;;;;;;;0.70;0.43;;;;;23.60;98890.00;;;;2587329;22;20226;-58
2023/09/22 04:08:24;;;;;;;0.93;0.60;;;;;23.60;98887.00;;;;2589598;22;20277;-57
2023/09/22 04:09:25;;;;;;;1.25;0.70;;;;;23.10;98886.00;;;;2588219;22;20203;-57
2023/09/22 04:10:25;;;;;;;0.70;0.50;;;;;23.60;98897.00;;;;2590359;22;20245;-58
2023/09/22 04:11:25;;;;;;;0.80;0.50;;;;;23.60;98895.00;;;;2576086;22;20195;-58
2023/09/22 04:12:26;;;;;;;0.80;0.47;;;;;23.60;98894.00;;;;2589255;22;20219;-58
2023/09/22 04:13:27;;;;;;;1.13;0.60;;;;;23.60;98895.00;;;;2589692;22;20206;-58
2023/09/22 04:14:27;;;;;;;0.90;0.50;;;;;23.60;98899.00;;;;2589802;22;20207;-57
2023/09/22 04:15:27;;;;;;;1.00;0.57;;;;;23.60;98892.00;;;;2590672;22;20450;-58
2023/09/22 04:16:28;;;;;;;1.33;0.77;;;;;23.60;98894.00;;;;2573478;22;20195;-58
2023/09/22 04:17:28;;;;;;;2.00;0.53;;;;;23.60;98901.00;;;;2586150;22;20199;-58
2023/09/22 04:18:31;;;;;;;1.30;0.80;;;;;23.60;98898.00;;;;2601916;22;20226;-58
2023/09/22 04:19:33;;;;;;;1.20;0.68;;;;;23.60;98895.00;;;;2587949;22;20201;-58
2023/09/22 04:20:37;;;;;;;0.77;0.40;;;;;23.60;98897.00;;;;2590032;22;20242;-58
2023/09/22 04:21:44;;;;;;;0.98;0.50;;;;;23.60;98898.00;;;;2582336;22;20186;-58
2023/09/22 04:22:45;;;;;;;0.80;0.50;;;;;23.60;98892.00;;;;2600885;22;20703;-57
2023/09/22 04:23:50;;;;;;;0.90;0.60;;;;;23.60;98893.00;;;;2588585;22;20207;-58
2023/09/22 04:24:59;;;;;;;0.98;0.40;;;;;23.60;98895.00;;;;2590139;22;20330;-58
2023/09/22 04:26:00;;;;;;;0.90;0.50;;;;;23.60;98897.00;;;;2590019;22;20195;-59
2023/09/22 04:27:06;;;;;;;1.17;0.70;;;;;23.60;98904.00;;;;2574547;22;20195;-57
2023/09/22 04:28:11;;;;;;;1.00;0.50;;;;;23.60;98901.00;;;;2586287;22;20194;-58
2023/09/22 04:29:11;;;;;;;0.70;0.40;;;;;23.60;98909.00;;;;2586671;22;20488;-58
2023/09/22 04:30:15;;;;;;;0.90;0.60;;;;;23.60;98901.00;;;;2590115;22;20237;-58
2023/09/22 04:31:16;;;;;;;1.10;0.70;;;;;23.60;98898.00;;;;2574580;22;20195;-58
2023/09/22 04:32:16;;;;;;;1.00;0.60;;;;;23.60;98896.00;;;;2589388;22;20622;-57
2023/09/22 04:33:17;;;;;;;1.03;0.63;;;;;23.60;98890.00;;;;2588030;22;20199;-57
2023/09/22 04:34:19;;;;;;;0.88;0.57;;;;;23.60;98894.00;;;;2590343;22;20191;-59
2023/09/22 04:35:24;;;;;;;0.90;0.80;;;;;23.60;98898.00;;;;2589013;22;20195;-61
2023/09/22 04:36:24;;;;;;;0.70;0.50;;;;;23.60;98899.00;;;;2577106;22;20530;-58
2023/09/22 04:37:24;;;;;;;1.20;0.70;;;;;23.60;98906.00;;;;2599481;22;20201;-57
2023/09/22 04:38:25;;;;;;;0.90;0.50;;;;;23.60;98908.00;;;;2598590;22;20196;-58
2023/09/22 04:39:25;;;;;;;0.93;0.50;;;;;23.60;98908.00;;;;2589750;22;20227;-58
2023/09/22 04:40:29;;;;;;;1.00;0.70;;;;;23.60;98912.00;;;;2590907;22;20267;-58
2023/09/22 04:41:30;;;;;;;0.90;0.60;;;;;23.60;98910.00;;;;2574970;22;20199;-58
2023/09/22 04:42:30;;;;;;;0.90;0.70;;;;;23.60;98913.00;;;;2589593;22;20778;-58
2023/09/22 04:43:30;;;;;;;1.20;0.60;;;;;23.60;98914.00;;;;2600809;22;20660;-58
2023/09/22 04:44:31;;;;;;;1.10;0.63;;;;;23.60;98954.00;;;;2590834;22;20664;-58
2023/09/22 04:45:31;;;;;;;1.07;0.60;;;;;23.60;98922.00;;;;2590489;22;20624;-57
2023/09/22 04:46:31;;;;;;;0.80;0.60;;;;;23.60;98926.00;;;;2569612;22;20204;-58
2023/09/22 04:47:32;;;;;;;0.90;0.50;;;;;23.60;98926.00;;;;2590821;22;20210;-58
2023/09/22 04:48:32;;;;;;;1.17;0.60;;;;;23.60;98932.00;;;;2587628;22;20195;-58
2023/09/22 04:49:32;;;;;;;1.13;0.60;;;;;23.60;98937.00;;;;2588218;22;20203;-58
2023/09/22 04:50:33;;;;;;;0.80;0.50;;;;;23.60;98936.00;;;;2583853;22;20196;-58
2023/09/22 04:51:33;;;;;;;1.00;0.50;;;;;23.60;98949.00;;;;2575132;22;20249;-58
2023/09/22 04:52:33;;;;;;;0.83;0.47;;;;;23.60;98944.00;;;;2590598;22;20245;-58
2023/09/22 04:53:34;;;;;;;0.93;0.40;;;;;23.60;98948.00;;;;2590495;22;20199;-58
2023/09/22 04:54:34;;;;;;;0.87;0.63;;;;;23.60;98955.00;;;;2588280;22;20231;-58
2023/09/22 04:55:35;;;;;;;0.80;0.50;;;;;23.50;98961.00;;;;2588111;22;20593;-58
2023/09/22 04:56:35;;;;;;;1.13;0.50;;;;;23.60;98966.00;;;;2588236;22;20202;-57
2023/09/22 04:57:36;;;;;;;0.80;0.50;;;;;23.60;98960.00;;;;2590674;22;20762;-58
2023/09/22 04:58:40;;;;;;;0.80;0.50;;;;;23.60;98954.00;;;;2590584;22;20582;-58
2023/09/22 04:59:40;;;;;;;0.90;0.65;;;;;23.60;98956.00;;;;2590237;22;20422;-56
2023/09/22 05:00:41;;;;;;;1.20;0.60;;;;;23.60;98955.00;;;;2591885;22;22772;-57
2023/09/22 05:01:41;;;;;;;0.87;0.40;;;;;23.60;98956.00;;;;2575295;22;20293;-58
2023/09/22 05:02:43;;;;;;;0.80;0.50;;;;;23.60;98950.00;;;;2586367;22;20211;-58
2023/09/22 05:03:45;;;;;;;1.25;0.52;;;;;23.60;98948.00;;;;2591087;22;20195;-58
2023/09/22 05:04:45;;;;;;;1.40;0.50;;;;;23.60;98941.00;;;;2602345;22;20209;-58